Time;durP1;ratioP1;P1;durP2;ratioP2;P2;SDS_P1;SDS_P2;PMS_P1;PMS_P2;Temp;Humidity;BMP_temperature;BMP_pressure;BME280_temperature;BME280_humidity;BME280_pressure;Samples;Min_cycle;Max_cycle;Signal;HPM_P1;HPM_P2
2020/12/06 00:00:53;;;;;;;22.23;15.98;;;2.90;92.50;;;;;;5069575;28;20024;-43
2020/12/06 00:03:19;;;;;;;19.52;14.15;;;3.00;92.50;;;;;;5068277;28;20492;-42
2020/12/06 00:05:44;;;;;;;20.00;14.10;;;3.00;92.50;;;;;;5068682;28;20446;-43
2020/12/06 00:08:10;;;;;;;19.30;14.18;;;3.00;92.50;;;;;;5068430;28;20024;-43
2020/12/06 00:10:35;;;;;;;21.02;15.75;;;2.90;92.50;;;;;;5068902;28;20537;-43
2020/12/06 00:13:01;;;;;;;21.50;15.00;;;3.00;92.50;;;;;;5068658;28;20020;-42
2020/12/06 00:15:26;;;;;;;21.23;15.50;;;3.00;92.50;;;;;;5068253;28;20040;-42
2020/12/06 00:17:51;;;;;;;23.83;16.85;;;3.00;92.50;;;;;;5068700;28;20111;-42
2020/12/06 00:20:17;;;;;;;21.40;16.45;;;3.00;92.50;;;;;;5068029;28;20114;-43
2020/12/06 00:22:44;;;;;;;29.17;15.45;;;3.00;92.50;;;;;;5068551;28;20032;-43
2020/12/06 00:25:10;;;;;;;22.67;17.30;;;3.00;92.50;;;;;;5067679;28;20033;-44
2020/12/06 00:27:35;;;;;;;21.85;16.52;;;3.00;92.50;;;;;;5068136;28;20031;-44
2020/12/06 00:30:05;;;;;;;18.70;14.23;;;3.00;92.50;;;;;;5065720;28;20123;-42
2020/12/06 00:32:31;;;;;;;21.05;15.70;;;3.00;92.50;;;;;;5047856;28;20067;-44
2020/12/06 00:34:56;;;;;;;19.73;15.85;;;3.00;92.50;;;;;;5048033;28;20908;-44
2020/12/06 00:37:22;;;;;;;19.20;15.65;;;2.90;92.50;;;;;;5047606;28;20465;-43
2020/12/06 00:39:47;;;;;;;19.45;14.60;;;3.00;92.50;;;;;;5047307;28;20028;-43
2020/12/06 00:42:13;;;;;;;20.58;15.05;;;2.90;92.50;;;;;;5047284;28;20044;-42
2020/12/06 00:44:38;;;;;;;20.92;15.55;;;2.90;92.50;;;;;;5048499;28;20051;-43
2020/12/06 00:47:04;;;;;;;18.55;14.40;;;2.90;92.60;;;;;;5047542;28;20086;-43
2020/12/06 00:49:29;;;;;;;21.30;15.60;;;2.90;92.60;;;;;;5047028;28;20804;-43
2020/12/06 00:51:55;;;;;;;18.08;14.18;;;2.90;92.60;;;;;;5048347;28;20063;-43
2020/12/06 00:54:21;;;;;;;19.25;14.73;;;2.80;92.90;;;;;;5047380;28;20024;-42
2020/12/06 00:56:46;;;;;;;19.67;14.45;;;2.80;92.70;;;;;;5047315;28;20760;-43
2020/12/06 00:59:12;;;;;;;18.67;14.52;;;2.80;92.70;;;;;;5048076;28;20033;-43
2020/12/06 01:01:40;;;;;;;19.67;14.80;;;2.80;92.70;;;;;;5047187;28;20021;-42
2020/12/06 01:04:07;;;;;;;21.60;16.00;;;2.80;92.80;;;;;;5047760;28;20029;-43
2020/12/06 01:06:32;;;;;;;23.38;15.82;;;2.80;92.80;;;;;;5047803;28;20125;-42
2020/12/06 01:08:58;;;;;;;22.48;15.75;;;2.80;92.80;;;;;;5047645;28;20020;-43
2020/12/06 01:11:23;;;;;;;19.42;14.32;;;2.80;92.80;;;;;;5047261;28;20577;-42
2020/12/06 01:13:49;;;;;;;21.23;14.88;;;2.80;92.80;;;;;;5047991;28;20021;-42
2020/12/06 01:16:14;;;;;;;20.00;15.07;;;2.80;92.80;;;;;;5046780;28;20043;-43
2020/12/06 01:18:41;;;;;;;18.38;14.02;;;2.80;92.80;;;;;;5047776;28;20104;-43
2020/12/06 01:21:09;;;;;;;19.55;15.13;;;2.80;92.80;;;;;;5047228;28;20423;-43
2020/12/06 01:23:34;;;;;;;20.40;15.43;;;2.80;92.80;;;;;;5047310;28;20021;-42
2020/12/06 01:26:00;;;;;;;19.67;15.45;;;2.90;92.80;;;;;;5047283;28;20496;-43
2020/12/06 01:28:25;;;;;;;22.40;15.32;;;2.90;92.80;;;;;;5047189;28;20036;-43
2020/12/06 01:30:51;;;;;;;21.10;15.60;;;2.90;92.80;;;;;;5046876;28;20104;-43
2020/12/06 01:33:16;;;;;;;23.50;16.63;;;2.90;92.80;;;;;;5046793;28;20048;-43
2020/12/06 01:35:42;;;;;;;21.08;16.27;;;2.80;92.70;;;;;;5047778;28;20041;-43
2020/12/06 01:38:07;;;;;;;21.23;16.15;;;2.90;92.70;;;;;;5046415;28;20021;-43
2020/12/06 01:40:41;;;;;;;21.20;16.17;;;2.80;92.70;;;;;;5047293;28;20029;-42
2020/12/06 01:43:09;;;;;;;21.80;16.05;;;2.80;92.70;;;;;;5047501;28;20071;-43
2020/12/06 01:45:36;;;;;;;19.92;15.48;;;2.80;92.80;;;;;;5046225;28;20520;-42
2020/12/06 01:48:03;;;;;;;20.25;14.88;;;2.80;92.80;;;;;;5046292;28;20427;-43
2020/12/06 01:50:28;;;;;;;20.88;15.88;;;2.80;92.80;;;;;;5046026;28;20029;-43
2020/12/06 01:52:55;;;;;;;23.35;16.42;;;2.80;92.80;;;;;;5050384;28;20021;-44
2020/12/06 01:55:22;;;;;;;21.77;15.77;;;2.80;92.80;;;;;;5050520;28;20036;-43
2020/12/06 01:57:47;;;;;;;20.98;15.50;;;2.80;92.80;;;;;;5050324;28;20736;-43
2020/12/06 02:00:13;;;;;;;21.08;15.02;;;2.80;92.90;;;;;;5050005;28;20028;-43
2020/12/06 02:02:38;;;;;;;20.98;15.60;;;2.80;92.90;;;;;;5050872;28;20532;-43
2020/12/06 02:05:04;;;;;;;21.90;15.15;;;2.80;92.90;;;;;;5050135;28;20554;-43
2020/12/06 02:07:32;;;;;;;20.05;15.00;;;2.80;92.90;;;;;;5049928;28;20044;-43
2020/12/06 02:09:58;;;;;;;20.80;15.45;;;2.70;92.90;;;;;;5050650;28;20612;-42
2020/12/06 02:12:24;;;;;;;19.02;14.30;;;2.80;92.90;;;;;;5049278;28;20112;-43
2020/12/06 02:14:49;;;;;;;22.50;16.15;;;2.80;92.90;;;;;;5050667;28;20087;-43
2020/12/06 02:17:15;;;;;;;18.77;13.70;;;2.80;92.90;;;;;;5049954;28;20029;-44
2020/12/06 02:19:41;;;;;;;19.13;14.82;;;2.80;92.90;;;;;;5050270;28;20087;-44
2020/12/06 02:22:07;;;;;;;15.60;11.93;;;2.80;92.90;;;;;;5050216;28;20029;-44
2020/12/06 02:24:33;;;;;;;15.75;11.93;;;2.80;92.90;;;;;;5050284;28;20033;-42
2020/12/06 02:26:58;;;;;;;18.52;12.85;;;2.80;92.90;;;;;;5049826;28;20029;-43
2020/12/06 02:29:24;;;;;;;18.75;13.27;;;2.80;92.90;;;;;;5050245;28;20036;-43
2020/12/06 02:31:49;;;;;;;20.38;14.95;;;2.80;92.90;;;;;;5050656;28;20119;-42
2020/12/06 02:34:15;;;;;;;20.13;14.57;;;2.80;92.90;;;;;;5049758;28;20029;-42
2020/12/06 02:36:41;;;;;;;20.55;13.90;;;2.80;92.90;;;;;;5049785;28;20358;-43
2020/12/06 02:39:09;;;;;;;15.77;12.32;;;2.90;92.90;;;;;;5049928;28;20040;-43
2020/12/06 02:41:39;;;;;;;17.02;12.43;;;2.90;92.90;;;;;;5049511;28;20021;-42
2020/12/06 02:44:06;;;;;;;16.40;12.00;;;2.90;92.90;;;;;;5049910;28;20171;-43
2020/12/06 02:46:32;;;;;;;14.73;11.65;;;2.90;92.90;;;;;;5049987;28;20075;-43
2020/12/06 02:48:58;;;;;;;14.07;10.75;;;2.90;92.90;;;;;;5050165;28;20039;-44
2020/12/06 02:51:25;;;;;;;12.60;10.18;;;2.90;92.90;;;;;;5050061;28;20172;-42
2020/12/06 02:53:50;;;;;;;13.38;9.60;;;2.90;92.90;;;;;;5049648;28;20735;-43
2020/12/06 02:56:17;;;;;;;12.27;9.15;;;2.90;92.90;;;;;;5048868;28;20031;-42
2020/12/06 02:58:42;;;;;;;11.02;8.57;;;2.80;92.90;;;;;;5049624;28;20498;-42
2020/12/06 03:01:08;;;;;;;12.63;8.93;;;2.80;92.90;;;;;;5048747;28;20025;-43
2020/12/06 03:03:33;;;;;;;11.05;8.82;;;2.80;93.00;;;;;;5048811;28;20403;-43
2020/12/06 03:05:58;;;;;;;10.57;8.27;;;2.70;93.00;;;;;;5050101;28;20106;-43
2020/12/06 03:08:24;;;;;;;10.68;8.25;;;2.70;93.00;;;;;;5049229;28;20188;-44
2020/12/06 03:10:49;;;;;;;10.40;7.97;;;2.70;93.10;;;;;;5049876;28;20447;-43
2020/12/06 03:13:15;;;;;;;10.70;8.10;;;2.70;93.10;;;;;;5049572;28;20036;-42
2020/12/06 03:15:40;;;;;;;10.88;8.63;;;2.70;93.10;;;;;;5049640;28;20025;-43
2020/12/06 03:18:06;;;;;;;11.50;8.65;;;2.60;93.10;;;;;;5049522;28;20511;-43
2020/12/06 03:20:31;;;;;;;13.38;10.25;;;2.60;93.10;;;;;;5049425;28;20555;-42
2020/12/06 03:22:59;;;;;;;11.88;9.07;;;2.60;93.10;;;;;;5048910;28;20369;-43
2020/12/06 03:25:25;;;;;;;12.82;9.35;;;2.60;93.10;;;;;;5048615;28;20036;-43
2020/12/06 03:27:50;;;;;;;15.00;10.35;;;2.60;93.10;;;;;;5049418;28;20090;-42
2020/12/06 03:30:16;;;;;;;13.32;9.85;;;2.60;93.10;;;;;;5048575;28;20021;-44
2020/12/06 03:32:41;;;;;;;14.73;10.45;;;2.60;93.40;;;;;;5049376;28;20126;-44
2020/12/06 03:35:07;;;;;;;15.50;10.73;;;2.60;93.10;;;;;;5049106;28;20033;-43
2020/12/06 03:37:32;;;;;;;14.95;11.38;;;2.60;93.20;;;;;;5048884;28;20025;-42
2020/12/06 03:39:58;;;;;;;14.70;10.93;;;2.60;93.10;;;;;;5049344;28;20029;-42
2020/12/06 03:42:24;;;;;;;15.70;11.18;;;2.60;93.10;;;;;;5049049;28;20036;-42
2020/12/06 03:44:49;;;;;;;17.38;11.90;;;2.70;93.20;;;;;;5049083;28;20065;-43
2020/12/06 03:47:15;;;;;;;18.88;12.18;;;2.70;93.10;;;;;;5048478;28;20033;-42
2020/12/06 03:49:41;;;;;;;16.52;11.02;;;2.70;93.10;;;;;;5049021;28;20472;-43
2020/12/06 03:52:06;;;;;;;14.15;10.75;;;2.70;93.10;;;;;;5048870;28;20111;-42
2020/12/06 03:54:32;;;;;;;13.32;9.98;;;2.80;93.00;;;;;;5049265;28;20024;-42
2020/12/06 03:56:57;;;;;;;13.82;10.43;;;2.80;93.10;;;;;;5048914;28;20120;-43
2020/12/06 03:59:23;;;;;;;14.93;11.32;;;2.80;93.00;;;;;;5048152;28;20391;-42
2020/12/06 04:01:48;;;;;;;13.07;10.48;;;2.90;93.00;;;;;;5048636;28;20021;-43
2020/12/06 04:04:14;;;;;;;13.10;9.90;;;2.90;93.00;;;;;;5047521;28;20029;-43
2020/12/06 04:06:39;;;;;;;14.32;10.32;;;2.90;92.90;;;;;;5048162;28;20041;-43
2020/12/06 04:09:05;;;;;;;13.63;10.43;;;2.90;92.90;;;;;;5048396;28;20020;-43
2020/12/06 04:11:30;;;;;;;14.00;9.85;;;2.90;92.90;;;;;;5047590;28;20017;-43
2020/12/06 04:13:56;;;;;;;12.57;9.32;;;2.90;92.90;;;;;;5048892;28;20067;-44
2020/12/06 04:16:21;;;;;;;13.32;9.32;;;2.90;92.90;;;;;;5046109;28;20033;-44
2020/12/06 04:18:47;;;;;;;11.77;8.88;;;2.90;92.90;;;;;;5048124;28;20479;-43
2020/12/06 04:21:13;;;;;;;14.38;10.15;;;2.90;92.90;;;;;;5048598;28;20032;-43
2020/12/06 04:23:39;;;;;;;16.10;11.45;;;3.00;92.90;;;;;;5048327;28;20132;-43
2020/12/06 04:26:05;;;;;;;18.42;13.50;;;2.90;92.90;;;;;;5047979;28;20079;-43
2020/12/06 04:28:31;;;;;;;18.10;13.25;;;3.00;92.90;;;;;;5048268;28;20025;-42
2020/12/06 04:30:57;;;;;;;18.85;13.95;;;3.10;92.90;;;;;;5048482;28;20116;-43
2020/12/06 04:33:22;;;;;;;19.65;14.00;;;3.10;92.80;;;;;;5047164;28;20020;-43
2020/12/06 04:35:48;;;;;;;17.65;13.00;;;3.10;92.80;;;;;;5048448;28;20032;-44
2020/12/06 04:38:13;;;;;;;14.88;10.73;;;3.20;92.80;;;;;;5047861;28;20482;-43
2020/12/06 04:40:39;;;;;;;14.50;10.45;;;3.20;92.70;;;;;;5048011;28;20021;-43
2020/12/06 04:43:04;;;;;;;16.55;12.73;;;3.20;92.70;;;;;;5048640;28;20028;-43
2020/12/06 04:45:31;;;;;;;15.57;11.10;;;3.20;92.70;;;;;;5047252;28;20059;-42
2020/12/06 04:47:56;;;;;;;16.13;11.63;;;3.20;92.70;;;;;;5047797;28;20021;-43
2020/12/06 04:50:35;;;;;;;13.25;9.98;;;3.20;92.60;;;;;;5047911;28;20468;-43
2020/12/06 04:53:02;;;;;;;12.23;9.38;;;3.20;92.60;;;;;;5048491;28;20033;-43
2020/12/06 04:55:34;;;;;;;13.73;10.35;;;3.20;92.60;;;;;;5046773;28;20021;-43
2020/12/06 04:58:01;;;;;;;11.57;9.25;;;3.20;92.60;;;;;;5047907;28;20033;-42
2020/12/06 05:00:34;;;;;;;14.07;10.50;;;3.20;92.90;;;;;;5047234;28;20052;-43
2020/12/06 05:03:09;;;;;;;14.80;11.25;;;3.20;92.70;;;;;;5048020;28;20075;-43
2020/12/06 05:05:36;;;;;;;13.68;10.43;;;3.10;92.60;;;;;;5047980;28;20040;-43
2020/12/06 05:08:12;;;;;;;16.83;12.02;;;3.10;92.60;;;;;;5047315;28;20013;-43
2020/12/06 05:10:37;;;;;;;15.02;11.98;;;3.10;92.60;;;;;;5047510;28;20538;-43
2020/12/06 05:13:03;;;;;;;15.50;12.73;;;3.10;92.50;;;;;;5047156;28;20029;-41
2020/12/06 05:15:29;;;;;;;17.77;14.05;;;3.10;92.50;;;;;;5046410;28;20025;-43
2020/12/06 05:17:55;;;;;;;17.83;13.52;;;3.00;92.50;;;;;;5046919;28;20031;-44
2020/12/06 05:20:21;;;;;;;18.48;14.70;;;3.00;92.50;;;;;;5046169;28;20029;-43
2020/12/06 05:22:47;;;;;;;21.77;16.63;;;3.00;92.50;;;;;;5046702;28;20028;-43
2020/12/06 05:25:16;;;;;;;19.90;14.52;;;3.00;92.50;;;;;;5046357;28;20055;-42
2020/12/06 05:27:42;;;;;;;18.25;13.80;;;2.90;92.40;;;;;;5046739;28;20057;-42
2020/12/06 05:30:08;;;;;;;17.33;12.90;;;3.00;92.50;;;;;;5046196;28;20032;-42
2020/12/06 05:32:34;;;;;;;15.75;12.73;;;2.90;92.50;;;;;;5047061;28;20037;-43
2020/12/06 05:35:00;;;;;;;13.70;11.32;;;2.90;92.50;;;;;;5047192;28;20464;-42
2020/12/06 05:37:27;;;;;;;15.77;12.02;;;2.90;92.50;;;;;;5046143;28;20067;-43
2020/12/06 05:40:04;;;;;;;16.50;12.18;;;2.90;92.50;;;;;;5047538;28;20029;-43
2020/12/06 05:42:31;;;;;;;18.10;14.13;;;2.90;92.50;;;;;;5046450;28;20029;-43
2020/12/06 05:44:57;;;;;;;16.27;12.70;;;2.90;92.50;;;;;;5046032;28;20029;-43
2020/12/06 05:47:23;;;;;;;19.70;13.73;;;2.90;92.50;;;;;;5046053;28;20427;-43
2020/12/06 05:49:49;;;;;;;18.65;13.60;;;2.90;92.50;;;;;;5047298;28;20029;-43
2020/12/06 05:52:20;;;;;;;17.52;13.65;;;2.90;92.50;;;;;;5046331;28;20360;-43
2020/12/06 05:54:47;;;;;;;22.63;15.77;;;3.00;92.50;;;;;;5047273;28;20494;-43
2020/12/06 05:57:13;;;;;;;18.98;15.27;;;3.00;92.50;;;;;;5045860;28;20083;-42
2020/12/06 05:59:39;;;;;;;19.73;14.40;;;3.00;92.40;;;;;;5046613;28;20029;-43
2020/12/06 06:02:07;;;;;;;22.33;15.90;;;3.00;92.40;;;;;;5046851;28;20021;-43
2020/12/06 06:04:37;;;;;;;21.50;15.90;;;3.00;92.30;;;;;;5046457;28;20056;-43
2020/12/06 06:07:04;;;;;;;25.85;16.80;;;3.10;92.30;;;;;;5047268;28;20108;-43
2020/12/06 06:09:33;;;;;;;21.27;16.27;;;3.10;92.30;;;;;;5047194;28;20036;-44
2020/12/06 06:12:27;;;;;;;21.05;16.45;;;3.10;92.20;;;;;;5046263;28;20025;-43
2020/12/06 06:14:54;;;;;;;22.60;16.80;;;3.10;92.20;;;;;;5046290;28;20548;-43
2020/12/06 06:17:22;;;;;;;23.10;16.67;;;3.10;92.20;;;;;;5046003;28;20036;-43
2020/12/06 06:19:48;;;;;;;23.48;17.25;;;3.10;92.10;;;;;;5046761;28;20022;-43
2020/12/06 06:22:15;;;;;;;23.77;17.38;;;3.10;92.10;;;;;;5046600;28;20035;-44
2020/12/06 06:24:41;;;;;;;24.98;17.65;;;3.10;92.10;;;;;;5047023;28;20112;-43
2020/12/06 06:27:08;;;;;;;25.42;17.92;;;3.10;92.10;;;;;;5046352;28;20590;-42
2020/12/06 06:29:36;;;;;;;24.30;17.42;;;3.10;92.10;;;;;;5046383;28;20040;-43
2020/12/06 06:32:03;;;;;;;23.40;16.77;;;3.10;92.10;;;;;;5046401;28;20104;-43
2020/12/06 06:34:34;;;;;;;27.20;18.13;;;3.20;92.20;;;;;;5046468;28;20564;-43
2020/12/06 06:36:59;;;;;;;24.10;17.50;;;3.10;92.10;;;;;;5046768;28;20157;-42
2020/12/06 06:39:26;;;;;;;25.88;17.17;;;3.20;92.10;;;;;;5048603;28;20588;-44
2020/12/06 06:42:11;;;;;;;26.55;18.52;;;3.20;92.10;;;;;;5050173;28;20036;-43
2020/12/06 06:44:42;;;;;;;27.48;19.08;;;3.20;92.10;;;;;;5049930;28;20036;-43
2020/12/06 06:47:10;;;;;;;26.88;17.13;;;3.20;92.10;;;;;;5048826;28;20530;-43
2020/12/06 06:49:50;;;;;;;27.10;18.73;;;3.20;92.10;;;;;;5050353;28;20112;-43
2020/12/06 06:52:17;;;;;;;29.40;19.30;;;3.20;92.20;;;;;;5049962;28;20025;-42
2020/12/06 06:54:47;;;;;;;30.42;21.33;;;3.20;92.20;;;;;;5049812;28;20025;-43
2020/12/06 06:57:14;;;;;;;25.70;18.38;;;3.20;92.20;;;;;;5049581;28;20025;-41
2020/12/06 06:59:43;;;;;;;30.05;20.92;;;3.20;92.20;;;;;;5049816;28;20033;-44
2020/12/06 07:02:26;;;;;;;28.50;19.90;;;3.20;92.30;;;;;;5049129;28;20033;-44
2020/12/06 07:04:52;;;;;;;25.35;17.75;;;3.20;92.30;;;;;;5050325;28;20041;-43
2020/12/06 07:07:46;;;;;;;23.80;17.58;;;3.20;92.60;;;;;;5049066;28;20025;-43
2020/12/06 07:10:17;;;;;;;24.00;16.92;;;3.20;92.30;;;;;;5049632;28;20029;-43
2020/12/06 07:12:45;;;;;;;24.77;17.92;;;3.20;92.30;;;;;;5049852;28;20108;-42
2020/12/06 07:15:11;;;;;;;27.20;19.15;;;3.20;92.30;;;;;;5048692;28;20116;-43
2020/12/06 07:17:37;;;;;;;26.58;18.83;;;3.20;92.30;;;;;;5049661;28;20108;-43
2020/12/06 07:20:04;;;;;;;31.02;22.30;;;3.20;92.30;;;;;;5049617;28;20467;-44
2020/12/06 07:22:30;;;;;;;28.25;19.83;;;3.20;92.30;;;;;;5049561;28;20056;-42
2020/12/06 07:24:56;;;;;;;29.08;19.73;;;3.20;92.30;;;;;;5049377;28;20067;-43
2020/12/06 07:27:21;;;;;;;31.13;20.85;;;3.20;92.40;;;;;;5048626;28;20036;-43
2020/12/06 07:29:47;;;;;;;27.40;18.27;;;3.20;92.40;;;;;;5048733;28;20021;-43
2020/12/06 07:32:12;;;;;;;28.50;20.42;;;3.20;92.40;;;;;;5048779;28;20494;-43
2020/12/06 07:34:38;;;;;;;34.70;24.48;;;3.10;92.40;;;;;;5049319;28;20029;-43
2020/12/06 07:37:04;;;;;;;35.45;22.52;;;3.10;92.40;;;;;;5048881;28;20028;-44
2020/12/06 07:39:29;;;;;;;29.67;19.95;;;3.10;92.40;;;;;;5048590;28;20452;-42
2020/12/06 07:41:55;;;;;;;27.15;19.67;;;3.10;92.40;;;;;;5046410;28;20029;-43
2020/12/06 07:44:20;;;;;;;26.05;17.63;;;3.10;92.50;;;;;;5047714;28;20052;-42
2020/12/06 07:46:59;;;;;;;27.48;18.88;;;3.10;92.50;;;;;;5047978;28;20045;-43
2020/12/06 07:49:25;;;;;;;26.80;18.67;;;3.10;92.50;;;;;;5045083;28;20028;-43
2020/12/06 07:51:50;;;;;;;30.27;21.42;;;3.10;92.50;;;;;;5048548;28;20029;-43
2020/12/06 07:54:16;;;;;;;29.50;20.67;;;3.00;92.50;;;;;;5047568;28;20025;-43
2020/12/06 07:56:46;;;;;;;31.67;21.38;;;3.00;92.50;;;;;;5047718;28;20042;-43
2020/12/06 07:59:25;;;;;;;30.80;20.80;;;3.00;92.50;;;;;;5047391;28;20112;-43
2020/12/06 08:01:53;;;;;;;31.67;22.08;;;3.00;92.60;;;;;;5047073;28;20078;-43
2020/12/06 08:04:31;;;;;;;32.58;21.52;;;3.00;92.60;;;;;;5047086;28;20021;-42
2020/12/06 08:07:03;;;;;;;30.58;21.42;;;3.00;92.60;;;;;;5048146;28;20037;-43
2020/12/06 08:09:32;;;;;;;28.65;18.48;;;3.00;92.60;;;;;;5048313;28;20047;-42
2020/12/06 08:12:02;;;;;;;30.35;20.23;;;3.00;92.60;;;;;;5048029;28;20033;-43
2020/12/06 08:14:27;;;;;;;28.50;20.10;;;3.10;92.70;;;;;;5047800;28;20025;-42
2020/12/06 08:17:00;;;;;;;33.92;23.25;;;3.10;92.70;;;;;;5048734;28;20025;-43
2020/12/06 08:19:27;;;;;;;39.30;25.58;;;3.10;92.70;;;;;;5044510;28;20117;-43
2020/12/06 08:22:00;;;;;;;31.33;21.77;;;3.10;92.70;;;;;;5047148;28;20037;-42
2020/12/06 08:24:27;;;;;;;;;;;3.20;92.70;;;;;;5046456;28;20032;-43
2020/12/06 08:26:52;;;;;;;34.92;22.30;;;3.20;92.70;;;;;;5045467;28;19978;-43
2020/12/06 08:29:18;;;;;;;35.25;22.83;;;3.20;92.60;;;;;;5045179;28;20482;-42
2020/12/06 08:31:48;;;;;;;30.35;20.50;;;3.20;92.70;;;;;;5045786;28;20017;-43
2020/12/06 08:34:16;;;;;;;30.55;19.83;;;3.20;92.70;;;;;;5045093;28;20056;-43
2020/12/06 08:36:43;;;;;;;32.63;21.88;;;3.20;92.70;;;;;;5045654;28;20021;-42
2020/12/06 08:39:19;;;;;;;29.17;21.45;;;3.20;92.70;;;;;;5045267;28;20024;-42
2020/12/06 08:41:45;;;;;;;29.52;20.13;;;3.20;92.70;;;;;;5045688;28;20029;-44
2020/12/06 08:44:11;;;;;;;32.05;22.13;;;3.20;92.70;;;;;;5045918;28;20021;-43
2020/12/06 08:46:37;;;;;;;32.58;21.02;;;3.20;92.70;;;;;;5045963;28;20616;-43
2020/12/06 08:49:19;;;;;;;32.85;21.83;;;3.20;92.70;;;;;;5046432;28;20029;-43
2020/12/06 08:51:50;;;;;;;31.17;20.95;;;3.20;92.80;;;;;;5045009;28;20087;-42
2020/12/06 08:54:31;;;;;;;30.98;20.75;;;3.20;92.80;;;;;;5042540;28;20025;-42
2020/12/06 08:57:11;;;;;;;33.03;21.85;;;3.20;92.80;;;;;;5044234;28;20041;-42
2020/12/06 08:59:38;;;;;;;33.28;21.92;;;3.30;92.80;;;;;;5043649;28;20377;-43
2020/12/06 09:02:04;;;;;;;30.23;20.88;;;3.20;92.80;;;;;;5045347;28;20055;-43
2020/12/06 09:04:32;;;;;;;32.45;21.52;;;3.20;92.80;;;;;;5045783;28;20040;-42
2020/12/06 09:06:57;;;;;;;33.30;20.27;;;3.20;92.80;;;;;;5046720;28;20033;-43
2020/12/06 09:09:23;;;;;;;29.02;19.73;;;3.30;92.80;;;;;;5045733;28;20009;-43
2020/12/06 09:11:52;;;;;;;33.22;20.63;;;3.30;92.80;;;;;;5046592;28;20108;-43
2020/12/06 09:14:18;;;;;;;30.95;21.23;;;3.30;92.80;;;;;;5045213;28;20828;-42
2020/12/06 09:16:44;;;;;;;32.20;22.38;;;3.30;92.80;;;;;;5044858;28;20025;-43
2020/12/06 09:19:09;;;;;;;33.80;22.52;;;3.40;92.80;;;;;;5044937;28;20435;-42
2020/12/06 09:21:35;;;;;;;38.83;25.23;;;3.40;92.80;;;;;;5045687;28;20705;-44
2020/12/06 09:24:00;;;;;;;38.13;25.42;;;3.40;92.80;;;;;;5045559;28;20460;-43
2020/12/06 09:26:26;;;;;;;35.55;23.65;;;3.50;92.80;;;;;;5044601;28;20035;-42
2020/12/06 09:28:52;;;;;;;33.45;22.55;;;3.50;92.70;;;;;;5045435;28;20029;-44
2020/12/06 09:31:21;;;;;;;31.92;22.35;;;3.50;92.70;;;;;;5046614;28;20136;-43
2020/12/06 09:33:47;;;;;;;34.63;23.77;;;3.60;92.70;;;;;;5047225;28;20465;-41
2020/12/06 09:36:12;;;;;;;34.30;22.95;;;3.60;92.70;;;;;;5046973;28;20032;-42
2020/12/06 09:38:38;;;;;;;31.67;22.23;;;3.70;92.60;;;;;;5047616;28;20543;-42
2020/12/06 09:41:03;;;;;;;34.38;23.98;;;3.80;92.60;;;;;;5047390;28;20476;-43
2020/12/06 09:43:29;;;;;;;31.33;21.85;;;3.90;92.50;;;;;;5046551;28;20207;-43
2020/12/06 09:45:54;;;;;;;35.17;23.63;;;3.90;92.50;;;;;;5043990;28;20053;-43
2020/12/06 09:48:20;;;;;;;32.30;22.38;;;4.00;92.50;;;;;;5044072;28;20052;-44
2020/12/06 09:50:45;;;;;;;39.65;25.60;;;4.00;92.30;;;;;;5045434;28;20087;-43
2020/12/06 09:53:11;;;;;;;33.72;22.58;;;4.10;92.20;;;;;;5043685;28;20599;-44
2020/12/06 09:55:37;;;;;;;32.95;22.45;;;4.10;92.40;;;;;;5046572;28;20025;-42
2020/12/06 09:58:02;;;;;;;35.67;24.13;;;4.10;92.10;;;;;;5046263;28;20111;-43
2020/12/06 10:00:28;;;;;;;31.80;21.02;;;4.20;92.10;;;;;;5046397;28;20067;-44
2020/12/06 10:02:54;;;;;;;28.85;19.23;;;4.10;92.10;;;;;;5047109;28;20098;-43
2020/12/06 10:05:20;;;;;;;32.72;22.55;;;4.20;92.20;;;;;;5045857;28;20439;-43
2020/12/06 10:07:45;;;;;;;35.15;23.27;;;4.20;92.10;;;;;;5052462;28;20029;-44
2020/12/06 10:10:11;;;;;;;35.92;24.55;;;4.30;92.10;;;;;;5051865;28;20034;-43
2020/12/06 10:12:36;;;;;;;33.45;23.60;;;4.30;92.00;;;;;;5050794;28;20281;-43
2020/12/06 10:15:03;;;;;;;36.47;25.15;;;4.30;91.90;;;;;;5060243;28;20039;-43
2020/12/06 10:17:29;;;;;;;35.67;24.77;;;4.30;91.90;;;;;;5049144;28;20449;-42
2020/12/06 10:19:55;;;;;;;36.10;25.58;;;4.30;92.00;;;;;;5050332;28;20108;-43
2020/12/06 10:22:20;;;;;;;36.28;24.45;;;4.30;92.00;;;;;;5049307;28;20451;-42
2020/12/06 10:24:46;;;;;;;36.75;25.45;;;4.20;91.90;;;;;;5050628;28;20024;-44
2020/12/06 10:27:11;;;;;;;37.50;25.20;;;4.20;92.00;;;;;;5049413;28;20055;-44
2020/12/06 10:29:38;;;;;;;37.22;25.83;;;4.20;92.00;;;;;;5050123;28;20637;-44
2020/12/06 10:32:03;;;;;;;36.85;24.17;;;4.20;92.00;;;;;;5049481;28;20040;-47
2020/12/06 10:34:29;;;;;;;37.65;24.60;;;4.20;92.00;;;;;;5049707;28;20024;-43
2020/12/06 10:36:57;;;;;;;39.20;24.98;;;4.20;92.00;;;;;;5049576;28;20025;-44
2020/12/06 10:39:24;;;;;;;37.95;24.95;;;4.20;92.00;;;;;;5047530;28;20040;-42
2020/12/06 10:41:52;;;;;;;37.40;25.65;;;4.30;92.10;;;;;;5049837;28;20041;-44
2020/12/06 10:44:18;;;;;;;44.70;26.83;;;4.30;92.10;;;;;;5045313;28;20158;-43
2020/12/06 10:46:44;;;;;;;37.80;25.90;;;4.30;92.10;;;;;;5048678;28;20044;-42
2020/12/06 10:49:09;;;;;;;37.45;24.95;;;4.30;92.10;;;;;;5048802;28;20033;-44
2020/12/06 10:51:38;;;;;;;30.60;22.45;;;4.30;92.10;;;;;;5049067;28;20028;-44
2020/12/06 10:54:03;;;;;;;33.08;22.13;;;4.40;92.20;;;;;;5048872;28;20075;-44
2020/12/06 10:56:29;;;;;;;29.17;20.35;;;4.40;92.20;;;;;;5049167;28;20036;-43
2020/12/06 10:58:55;;;;;;;31.52;21.38;;;4.50;92.20;;;;;;5044892;28;20431;-44
2020/12/06 11:01:27;;;;;;;29.92;21.08;;;4.50;92.20;;;;;;5044658;28;20456;-43
2020/12/06 11:03:52;;;;;;;27.50;20.75;;;4.60;92.20;;;;;;5049814;28;20102;-43
2020/12/06 11:06:19;;;;;;;30.27;21.23;;;4.60;92.10;;;;;;5048741;28;20646;-42
2020/12/06 11:08:45;;;;;;;29.55;21.55;;;4.70;92.10;;;;;;5048676;28;20400;-42
2020/12/06 11:11:13;;;;;;;32.20;21.63;;;4.70;92.00;;;;;;5054026;28;20539;-43
2020/12/06 11:13:39;;;;;;;32.03;22.25;;;4.80;92.00;;;;;;5068724;28;20028;-43
2020/12/06 11:16:04;;;;;;;32.40;22.33;;;4.80;92.00;;;;;;5069934;28;20100;-43
2020/12/06 11:18:30;;;;;;;31.40;21.95;;;4.80;91.90;;;;;;5069395;28;20104;-43
2020/12/06 11:20:55;;;;;;;30.67;21.30;;;4.80;91.90;;;;;;5069609;28;20519;-43
2020/12/06 11:23:21;;;;;;;34.17;23.70;;;4.80;91.90;;;;;;5069617;28;20086;-43
2020/12/06 11:25:46;;;;;;;29.15;20.83;;;4.90;92.00;;;;;;5069891;28;20064;-43
2020/12/06 11:28:12;;;;;;;33.50;21.80;;;4.90;92.00;;;;;;5070082;28;20024;-43
2020/12/06 11:30:38;;;;;;;26.70;19.35;;;5.00;92.00;;;;;;5070627;28;20031;-43
2020/12/06 11:33:03;;;;;;;31.77;20.80;;;5.00;92.00;;;;;;5069917;28;20044;-43
2020/12/06 11:35:29;;;;;;;30.50;20.60;;;5.00;92.00;;;;;;5069007;28;20085;-43
2020/12/06 11:37:54;;;;;;;30.83;21.33;;;5.10;92.00;;;;;;5066698;28;20090;-43
2020/12/06 11:40:20;;;;;;;33.92;23.83;;;5.20;91.90;;;;;;5070146;28;20480;-44
2020/12/06 11:42:45;;;;;;;28.25;21.15;;;5.20;91.80;;;;;;5050889;28;20107;-43
2020/12/06 11:45:11;;;;;;;28.38;20.67;;;5.30;91.70;;;;;;5047236;28;20056;-43
2020/12/06 11:47:36;;;;;;;28.48;20.48;;;5.30;91.60;;;;;;5049264;28;20033;-42
2020/12/06 11:50:03;;;;;;;30.83;21.33;;;5.30;91.70;;;;;;5049054;28;20424;-43
2020/12/06 11:52:29;;;;;;;32.55;22.80;;;5.40;91.70;;;;;;5048587;28;20427;-44
2020/12/06 11:55:04;;;;;;;31.38;21.20;;;5.40;91.60;;;;;;5049153;28;20029;-42
2020/12/06 11:57:29;;;;;;;27.20;18.80;;;5.40;91.60;;;;;;5048636;28;20021;-43
2020/12/06 11:59:55;;;;;;;25.98;19.23;;;5.50;91.70;;;;;;5048506;28;20095;-43
2020/12/06 12:02:20;;;;;;;26.35;19.35;;;5.50;91.60;;;;;;5048180;28;20029;-43
2020/12/06 12:04:46;;;;;;;26.88;18.40;;;5.50;91.60;;;;;;5048643;28;20024;-42
2020/12/06 12:07:12;;;;;;;23.08;16.02;;;5.60;91.50;;;;;;5045337;28;20021;-43
2020/12/06 12:09:37;;;;;;;22.23;15.90;;;5.60;91.60;;;;;;5047063;28;20036;-43
2020/12/06 12:12:03;;;;;;;19.45;14.73;;;5.60;91.60;;;;;;5047058;28;20408;-43
2020/12/06 12:14:28;;;;;;;25.55;18.45;;;5.70;91.60;;;;;;5046611;28;20029;-43
2020/12/06 12:16:54;;;;;;;25.25;18.77;;;5.70;91.60;;;;;;5046875;28;20128;-42
2020/12/06 12:19:19;;;;;;;26.08;18.42;;;5.70;91.40;;;;;;5045636;28;20036;-42
2020/12/06 12:21:45;;;;;;;28.52;19.48;;;5.80;91.30;;;;;;5052239;28;20103;-44
2020/12/06 12:24:10;;;;;;;27.88;20.45;;;5.70;91.30;;;;;;5045505;28;20053;-42
2020/12/06 12:26:36;;;;;;;27.23;18.90;;;5.70;91.30;;;;;;5047183;28;20407;-43
2020/12/06 12:29:01;;;;;;;30.75;21.58;;;5.70;91.20;;;;;;5047383;28;20499;-43
2020/12/06 12:31:28;;;;;;;31.35;21.45;;;5.70;91.20;;;;;;5046457;28;20037;-42
2020/12/06 12:33:53;;;;;;;27.48;20.15;;;5.70;91.20;;;;;;5047328;28;20036;-43
2020/12/06 12:36:19;;;;;;;30.63;22.10;;;5.70;91.20;;;;;;5047003;28;20048;-42